sensor_id;sensor_type;location;lat;lon;timestamp;pressure;altitude;pressure_sealevel;temperature;humidity
64967;BME280;51710;38.732;-121.358;2024-03-17T00:01:11;100860.66;;;22.90;39.19
64967;BME280;51710;38.732;-121.358;2024-03-17T00:03:37;100860.31;;;22.98;39.70
64967;BME280;51710;38.732;-121.358;2024-03-17T00:06:06;100864.59;;;23.06;39.67
64967;BME280;51710;38.732;-121.358;2024-03-17T00:08:34;100852.19;;;23.10;39.67
64967;BME280;51710;38.732;-121.358;2024-03-17T00:11:00;100864.59;;;23.06;38.72
64967;BME280;51710;38.732;-121.358;2024-03-17T00:13:26;100853.13;;;23.04;38.39
64967;BME280;51710;38.732;-121.358;2024-03-17T00:15:53;100864.47;;;23.01;38.57
64967;BME280;51710;38.732;-121.358;2024-03-17T00:18:19;100855.84;;;23.04;39.52
64967;BME280;51710;38.732;-121.358;2024-03-17T00:20:45;100853.47;;;23.07;39.29
64967;BME280;51710;38.732;-121.358;2024-03-17T00:23:12;100849.81;;;23.02;38.84
64967;BME280;51710;38.732;-121.358;2024-03-17T00:25:39;100851.38;;;22.98;39.16
64967;BME280;51710;38.732;-121.358;2024-03-17T00:28:05;100847.56;;;22.99;39.15
64967;BME280;51710;38.732;-121.358;2024-03-17T00:30:32;100852.53;;;23.02;39.12
64967;BME280;51710;38.732;-121.358;2024-03-17T00:32:59;100845.94;;;22.98;38.55
64967;BME280;51710;38.732;-121.358;2024-03-17T00:35:25;100855.59;;;22.94;38.81
64967;BME280;51710;38.732;-121.358;2024-03-17T00:37:52;100855.38;;;22.95;39.12
64967;BME280;51710;38.732;-121.358;2024-03-17T00:40:20;100843.06;;;22.93;39.62
64967;BME280;51710;38.732;-121.358;2024-03-17T00:42:47;100853.47;;;22.96;39.21
64967;BME280;51710;38.732;-121.358;2024-03-17T00:45:13;100853.47;;;22.96;39.22
64967;BME280;51710;38.732;-121.358;2024-03-17T00:47:39;100858.91;;;22.96;39.40
64967;BME280;51710;38.732;-121.358;2024-03-17T00:50:06;100858.69;;;22.97;39.72
64967;BME280;51710;38.732;-121.358;2024-03-17T00:52:34;100850.16;;;22.94;39.73
64967;BME280;51710;38.732;-121.358;2024-03-17T00:55:01;100858.19;;;22.89;39.63
64967;BME280;51710;38.732;-121.358;2024-03-17T00:57:28;100858.19;;;22.89;40.54
64967;BME280;51710;38.732;-121.358;2024-03-17T00:59:54;100853.81;;;22.88;39.05
64967;BME280;51710;38.732;-121.358;2024-03-17T01:02:22;100857.72;;;22.80;38.77
64967;BME280;51710;38.732;-121.358;2024-03-17T01:04:48;100860.50;;;22.74;38.75
64967;BME280;51710;38.732;-121.358;2024-03-17T01:07:14;100853.31;;;22.68;39.78
64967;BME280;51710;38.732;-121.358;2024-03-17T01:09:41;100858.63;;;22.63;39.44
64967;BME280;51710;38.732;-121.358;2024-03-17T01:12:07;100864.13;;;22.56;39.68
64967;BME280;51710;38.732;-121.358;2024-03-17T01:14:33;100866.28;;;22.54;39.53
64967;BME280;51710;38.732;-121.358;2024-03-17T01:17:00;100859.97;;;22.54;40.29
64967;BME280;51710;38.732;-121.358;2024-03-17T01:19:30;100866.28;;;22.54;40.31
64967;BME280;51710;38.732;-121.358;2024-03-17T01:21:57;100869.41;;;22.51;40.43
64967;BME280;51710;38.732;-121.358;2024-03-17T01:24:24;100868.78;;;22.49;40.79
64967;BME280;51710;38.732;-121.358;2024-03-17T01:26:50;100871.84;;;22.41;40.97
64967;BME280;51710;38.732;-121.358;2024-03-17T01:29:17;100875.88;;;22.39;40.84
64967;BME280;51710;38.732;-121.358;2024-03-17T01:31:44;100876.06;;;22.37;40.71
64967;BME280;51710;38.732;-121.358;2024-03-17T01:34:10;100876.06;;;22.37;41.05
64967;BME280;51710;38.732;-121.358;2024-03-17T01:36:37;100877.38;;;22.34;40.71
64967;BME280;51710;38.732;-121.358;2024-03-17T01:39:03;100881.22;;;22.27;41.00
64967;BME280;51710;38.732;-121.358;2024-03-17T01:41:31;100882.38;;;22.19;41.76
64967;BME280;51710;38.732;-121.358;2024-03-17T01:43:57;100891.91;;;22.10;41.82
64967;BME280;51710;38.732;-121.358;2024-03-17T01:46:24;100884.50;;;21.99;42.22
64967;BME280;51710;38.732;-121.358;2024-03-17T01:48:51;100891.31;;;21.90;42.14
64967;BME280;51710;38.732;-121.358;2024-03-17T01:51:18;100891.00;;;21.80;42.30
64967;BME280;51710;38.732;-121.358;2024-03-17T01:53:45;100890.06;;;21.68;42.52
64967;BME280;51710;38.732;-121.358;2024-03-17T01:56:14;100893.28;;;21.59;42.40
64967;BME280;51710;38.732;-121.358;2024-03-17T01:58:44;100897.56;;;21.48;42.67
64967;BME280;51710;38.732;-121.358;2024-03-17T02:01:11;100891.00;;;21.38;42.84
64967;BME280;51710;38.732;-121.358;2024-03-17T02:03:41;100904.00;;;21.29;43.06
64967;BME280;51710;38.732;-121.358;2024-03-17T02:06:08;100907.47;;;21.18;43.30
64967;BME280;51710;38.732;-121.358;2024-03-17T02:08:51;100909.78;;;21.14;43.70
64967;BME280;51710;38.732;-121.358;2024-03-17T02:11:28;100909.16;;;21.12;43.62
64967;BME280;51710;38.732;-121.358;2024-03-17T02:13:55;100914.03;;;21.04;43.88
64967;BME280;51710;38.732;-121.358;2024-03-17T02:16:25;100911.78;;;20.94;43.84
64967;BME280;51710;38.732;-121.358;2024-03-17T02:18:55;100914.38;;;20.83;44.06
64967;BME280;51710;38.732;-121.358;2024-03-17T02:21:23;100923.78;;;20.74;43.93
64967;BME280;51710;38.732;-121.358;2024-03-17T02:23:51;100916.38;;;20.63;44.39
64967;BME280;51710;38.732;-121.358;2024-03-17T02:26:17;100926.22;;;20.51;44.69
64967;BME280;51710;38.732;-121.358;2024-03-17T02:28:45;100929.41;;;20.41;44.63
64967;BME280;51710;38.732;-121.358;2024-03-17T02:31:16;100933.00;;;20.29;44.66
64967;BME280;51710;38.732;-121.358;2024-03-17T02:33:43;100921.78;;;20.12;44.81
64967;BME280;51710;38.732;-121.358;2024-03-17T02:36:11;100938.53;;;19.96;45.50
64967;BME280;51710;38.732;-121.358;2024-03-17T02:38:39;100925.69;;;19.78;45.43
64967;BME280;51710;38.732;-121.358;2024-03-17T02:41:24;100938.56;;;19.63;45.83
64967;BME280;51710;38.732;-121.358;2024-03-17T02:43:50;100937.16;;;19.54;46.00
64967;BME280;51710;38.732;-121.358;2024-03-17T02:46:17;100935.28;;;19.48;45.85
64967;BME280;51710;38.732;-121.358;2024-03-17T02:48:50;100945.06;;;19.43;46.27
64967;BME280;51710;38.732;-121.358;2024-03-17T02:51:20;100937.81;;;19.37;46.53
64967;BME280;51710;38.732;-121.358;2024-03-17T02:53:48;100945.72;;;19.32;46.70
64967;BME280;51710;38.732;-121.358;2024-03-17T02:56:15;100950.25;;;19.25;47.23
64967;BME280;51710;38.732;-121.358;2024-03-17T02:58:43;100949.59;;;19.16;47.49
64967;BME280;51710;38.732;-121.358;2024-03-17T03:01:10;100962.88;;;18.98;47.82
64967;BME280;51710;38.732;-121.358;2024-03-17T03:03:36;100952.25;;;18.77;48.34
64967;BME280;51710;38.732;-121.358;2024-03-17T03:06:04;100961.31;;;18.50;48.83
64967;BME280;51710;38.732;-121.358;2024-03-17T03:08:35;100957.47;;;18.25;49.69
64967;BME280;51710;38.732;-121.358;2024-03-17T03:11:09;100971.03;;;18.04;50.14
64967;BME280;51710;38.732;-121.358;2024-03-17T03:13:41;100969.72;;;17.86;50.32
64967;BME280;51710;38.732;-121.358;2024-03-17T03:16:13;100975.00;;;17.73;51.06
64967;BME280;51710;38.732;-121.358;2024-03-17T03:18:40;100979.91;;;17.63;51.50
64967;BME280;51710;38.732;-121.358;2024-03-17T03:21:08;100981.94;;;17.55;51.90
64967;BME280;51710;38.732;-121.358;2024-03-17T03:23:34;100981.41;;;17.45;52.40
64967;BME280;51710;38.732;-121.358;2024-03-17T03:26:02;100981.34;;;17.38;52.75
64967;BME280;51710;38.732;-121.358;2024-03-17T03:28:33;100992.75;;;17.40;53.05
64967;BME280;51710;38.732;-121.358;2024-03-17T03:31:02;100989.03;;;17.41;52.78
64967;BME280;51710;38.732;-121.358;2024-03-17T03:33:28;100987.50;;;17.32;53.49
64967;BME280;51710;38.732;-121.358;2024-03-17T03:35:55;100993.03;;;17.24;53.98
64967;BME280;51710;38.732;-121.358;2024-03-17T03:38:22;100993.16;;;17.16;54.33
64967;BME280;51710;38.732;-121.358;2024-03-17T03:40:51;100996.81;;;17.09;54.69
64967;BME280;51710;38.732;-121.358;2024-03-17T03:43:18;101005.28;;;17.06;54.72
64967;BME280;51710;38.732;-121.358;2024-03-17T03:45:47;101012.34;;;17.07;54.65
64967;BME280;51710;38.732;-121.358;2024-03-17T03:48:16;101022.50;;;17.11;54.16
64967;BME280;51710;38.732;-121.358;2024-03-17T03:50:43;101021.75;;;17.17;53.76
64967;BME280;51710;38.732;-121.358;2024-03-17T03:53:10;101029.69;;;17.25;53.43
64967;BME280;51710;38.732;-121.358;2024-03-17T03:55:37;101026.84;;;17.33;53.02
64967;BME280;51710;38.732;-121.358;2024-03-17T03:58:04;101035.19;;;17.38;52.96
64967;BME280;51710;38.732;-121.358;2024-03-17T04:00:30;101030.69;;;17.45;52.98
64967;BME280;51710;38.732;-121.358;2024-03-17T04:02:58;101034.06;;;17.47;52.85
64967;BME280;51710;38.732;-121.358;2024-03-17T04:05:26;101035.34;;;17.51;52.93
64967;BME280;51710;38.732;-121.358;2024-03-17T04:07:52;101037.00;;;17.52;53.17
64967;BME280;51710;38.732;-121.358;2024-03-17T04:10:18;101048.41;;;17.54;52.87
64967;BME280;51710;38.732;-121.358;2024-03-17T04:12:46;101038.50;;;17.55;53.21
64967;BME280;51710;38.732;-121.358;2024-03-17T04:15:13;101047.00;;;17.58;53.69
64967;BME280;51710;38.732;-121.358;2024-03-17T04:17:40;101050.34;;;17.60;53.61
64967;BME280;51710;38.732;-121.358;2024-03-17T04:20:08;101046.22;;;17.64;53.61
64967;BME280;51710;38.732;-121.358;2024-03-17T04:22:36;101051.59;;;17.64;53.76
64967;BME280;51710;38.732;-121.358;2024-03-17T04:25:02;101052.84;;;17.62;53.98
64967;BME280;51710;38.732;-121.358;2024-03-17T04:27:29;101053.03;;;17.60;54.21
64967;BME280;51710;38.732;-121.358;2024-03-17T04:29:59;101051.56;;;17.58;54.75
64967;BME280;51710;38.732;-121.358;2024-03-17T04:32:26;101062.06;;;17.53;54.93
64967;BME280;51710;38.732;-121.358;2024-03-17T04:34:59;101056.25;;;17.49;55.28
64967;BME280;51710;38.732;-121.358;2024-03-17T04:37:26;101056.81;;;17.45;55.49
64967;BME280;51710;38.732;-121.358;2024-03-17T04:39:52;101068.78;;;17.42;55.65
64967;BME280;51710;38.732;-121.358;2024-03-17T04:42:19;101068.13;;;17.40;55.75
64967;BME280;51710;38.732;-121.358;2024-03-17T04:44:45;101062.13;;;17.38;55.96
64967;BME280;51710;38.732;-121.358;2024-03-17T04:47:12;101076.63;;;17.37;56.14
64967;BME280;51710;38.732;-121.358;2024-03-17T04:49:39;101074.97;;;17.36;56.09
64967;BME280;51710;38.732;-121.358;2024-03-17T04:52:06;101081.75;;;17.32;56.27
64967;BME280;51710;38.732;-121.358;2024-03-17T04:54:36;101083.34;;;17.27;56.38
64967;BME280;51710;38.732;-121.358;2024-03-17T04:57:02;101083.28;;;17.20;56.57
64967;BME280;51710;38.732;-121.358;2024-03-17T04:59:29;101091.09;;;17.15;56.76
64967;BME280;51710;38.732;-121.358;2024-03-17T05:01:56;101083.78;;;17.09;57.17
64967;BME280;51710;38.732;-121.358;2024-03-17T05:04:22;101088.25;;;17.02;57.49
64967;BME280;51710;38.732;-121.358;2024-03-17T05:06:49;101084.25;;;16.98;57.41
64967;BME280;51710;38.732;-121.358;2024-03-17T05:09:18;101090.22;;;16.94;57.45
64967;BME280;51710;38.732;-121.358;2024-03-17T05:11:45;101096.00;;;16.91;57.86
64967;BME280;51710;38.732;-121.358;2024-03-17T05:14:13;101102.56;;;16.88;57.85
64967;BME280;51710;38.732;-121.358;2024-03-17T05:16:39;101104.59;;;16.86;58.09
64967;BME280;51710;38.732;-121.358;2024-03-17T05:19:06;101106.03;;;16.82;58.31
64967;BME280;51710;38.732;-121.358;2024-03-17T05:21:34;101100.19;;;16.78;58.47
64967;BME280;51710;38.732;-121.358;2024-03-17T05:24:04;101115.69;;;16.76;58.82
64967;BME280;51710;38.732;-121.358;2024-03-17T05:26:30;101116.06;;;16.73;58.90
64967;BME280;51710;38.732;-121.358;2024-03-17T05:28:57;101115.75;;;16.68;59.21
64967;BME280;51710;38.732;-121.358;2024-03-17T05:31:23;101127.75;;;16.66;59.15
64967;BME280;51710;38.732;-121.358;2024-03-17T05:33:50;101120.06;;;16.63;59.44
64967;BME280;51710;38.732;-121.358;2024-03-17T05:36:18;101125.78;;;16.60;59.74
64967;BME280;51710;38.732;-121.358;2024-03-17T05:38:45;101134.41;;;16.55;60.01
64967;BME280;51710;38.732;-121.358;2024-03-17T05:41:13;101136.00;;;16.50;60.07
64967;BME280;51710;38.732;-121.358;2024-03-17T05:43:40;101141.06;;;16.45;60.28
64967;BME280;51710;38.732;-121.358;2024-03-17T05:46:09;101141.63;;;16.40;60.31
64967;BME280;51710;38.732;-121.358;2024-03-17T05:48:37;101149.22;;;16.37;60.89
64967;BME280;51710;38.732;-121.358;2024-03-17T05:51:10;101147.91;;;16.33;60.82
64967;BME280;51710;38.732;-121.358;2024-03-17T05:53:38;101153.00;;;16.28;61.16
64967;BME280;51710;38.732;-121.358;2024-03-17T05:56:10;101151.69;;;16.24;61.38
64967;BME280;51710;38.732;-121.358;2024-03-17T05:58:42;101155.75;;;16.20;61.57
64967;BME280;51710;38.732;-121.358;2024-03-17T06:01:10;101158.16;;;16.15;61.62
64967;BME280;51710;38.732;-121.358;2024-03-17T06:03:37;101156.88;;;16.11;62.01
64967;BME280;51710;38.732;-121.358;2024-03-17T06:06:05;101153.88;;;16.06;62.46
64967;BME280;51710;38.732;-121.358;2024-03-17T06:08:36;101152.59;;;16.02;62.20
64967;BME280;51710;38.732;-121.358;2024-03-17T06:11:03;101155.00;;;15.97;62.23
64967;BME280;51710;38.732;-121.358;2024-03-17T06:13:30;101156.53;;;15.91;62.50
64967;BME280;51710;38.732;-121.358;2024-03-17T06:15:56;101162.28;;;15.88;62.77
64967;BME280;51710;38.732;-121.358;2024-03-17T06:18:32;101155.41;;;15.86;62.73
64967;BME280;51710;38.732;-121.358;2024-03-17T06:20:58;101152.63;;;15.79;62.83
64967;BME280;51710;38.732;-121.358;2024-03-17T06:23:24;101157.69;;;15.74;63.04
64967;BME280;51710;38.732;-121.358;2024-03-17T06:25:53;101155.53;;;15.69;63.28
64967;BME280;51710;38.732;-121.358;2024-03-17T06:28:23;101162.31;;;15.65;63.56
64967;BME280;51710;38.732;-121.358;2024-03-17T06:30:57;101169.03;;;15.61;63.21
64967;BME280;51710;38.732;-121.358;2024-03-17T06:33:29;101170.03;;;15.60;63.45
64967;BME280;51710;38.732;-121.358;2024-03-17T06:35:58;101170.41;;;15.57;63.46
64967;BME280;51710;38.732;-121.358;2024-03-17T06:38:24;101173.06;;;15.57;63.71
64967;BME280;51710;38.732;-121.358;2024-03-17T06:40:52;101173.25;;;15.56;63.54
64967;BME280;51710;38.732;-121.358;2024-03-17T06:43:19;101172.59;;;15.54;63.87
64967;BME280;51710;38.732;-121.358;2024-03-17T06:45:57;101177.66;;;15.49;63.78
64967;BME280;51710;38.732;-121.358;2024-03-17T06:48:24;101177.56;;;15.42;64.01
64967;BME280;51710;38.732;-121.358;2024-03-17T06:50:51;101175.53;;;15.36;63.85
64967;BME280;51710;38.732;-121.358;2024-03-17T06:53:18;101186.81;;;15.32;64.29
64967;BME280;51710;38.732;-121.358;2024-03-17T06:55:53;101180.13;;;15.28;64.16
64967;BME280;51710;38.732;-121.358;2024-03-17T06:58:23;101178.97;;;15.22;64.02
64967;BME280;51710;38.732;-121.358;2024-03-17T07:01:00;101180.34;;;15.18;63.83
64967;BME280;51710;38.732;-121.358;2024-03-17T07:03:31;101190.59;;;15.15;64.04
64967;BME280;51710;38.732;-121.358;2024-03-17T07:05:59;101187.44;;;15.11;63.93
64967;BME280;51710;38.732;-121.358;2024-03-17T07:08:28;101195.00;;;15.08;64.01
64967;BME280;51710;38.732;-121.358;2024-03-17T07:13:26;101184.09;;;15.01;63.78
64967;BME280;51710;38.732;-121.358;2024-03-17T07:15:54;101190.66;;;14.99;63.73
64967;BME280;51710;38.732;-121.358;2024-03-17T07:18:20;101185.28;;;14.99;63.94
64967;BME280;51710;38.732;-121.358;2024-03-17T07:20:47;101188.66;;;15.01;63.96
64967;BME280;51710;38.732;-121.358;2024-03-17T07:23:16;101193.16;;;15.00;63.64
64967;BME280;51710;38.732;-121.358;2024-03-17T07:25:43;101188.16;;;14.97;63.74
64967;BME280;51710;38.732;-121.358;2024-03-17T07:28:17;101191.34;;;14.93;63.61
64967;BME280;51710;38.732;-121.358;2024-03-17T07:30:55;101187.34;;;14.89;63.61
64967;BME280;51710;38.732;-121.358;2024-03-17T07:33:22;101185.19;;;14.84;63.54
64967;BME280;51710;38.732;-121.358;2024-03-17T07:35:58;101190.22;;;14.79;63.49
64967;BME280;51710;38.732;-121.358;2024-03-17T07:38:29;101198.81;;;14.75;63.50
64967;BME280;51710;38.732;-121.358;2024-03-17T07:41:04;101205.34;;;14.72;63.55
64967;BME280;51710;38.732;-121.358;2024-03-17T07:43:32;101196.78;;;14.68;63.28
64967;BME280;51710;38.732;-121.358;2024-03-17T07:46:21;101196.97;;;14.67;63.28
64967;BME280;51710;38.732;-121.358;2024-03-17T07:48:46;101193.97;;;14.62;63.33
64967;BME280;51710;38.732;-121.358;2024-03-17T07:51:14;101198.16;;;14.56;63.31
64967;BME280;51710;38.732;-121.358;2024-03-17T07:53:43;101195.34;;;14.50;63.31
64967;BME280;51710;38.732;-121.358;2024-03-17T07:56:18;101196.69;;;14.46;63.12
64967;BME280;51710;38.732;-121.358;2024-03-17T07:58:45;101197.38;;;14.40;63.01
64967;BME280;51710;38.732;-121.358;2024-03-17T08:01:15;101202.38;;;14.35;63.18
64967;BME280;51710;38.732;-121.358;2024-03-17T08:03:48;101192.00;;;14.32;63.10
64967;BME280;51710;38.732;-121.358;2024-03-17T08:06:21;101208.44;;;14.29;62.75
64967;BME280;51710;38.732;-121.358;2024-03-17T08:08:48;101194.38;;;14.27;63.01
64967;BME280;51710;38.732;-121.358;2024-03-17T08:11:14;101200.03;;;14.24;62.85
64967;BME280;51710;38.732;-121.358;2024-03-17T08:13:40;101198.69;;;14.20;62.79
64967;BME280;51710;38.732;-121.358;2024-03-17T08:16:07;101193.69;;;14.17;62.91
64967;BME280;51710;38.732;-121.358;2024-03-17T08:18:36;101198.38;;;14.15;62.98
64967;BME280;51710;38.732;-121.358;2024-03-17T08:21:03;101202.06;;;14.14;62.71
64967;BME280;51710;38.732;-121.358;2024-03-17T08:23:33;101197.03;;;14.11;62.86
64967;BME280;51710;38.732;-121.358;2024-03-17T08:26:03;101194.53;;;14.09;62.84
64967;BME280;51710;38.732;-121.358;2024-03-17T08:28:30;101195.72;;;14.07;62.94
64967;BME280;51710;38.732;-121.358;2024-03-17T08:30:58;101202.06;;;14.06;62.59
64967;BME280;51710;38.732;-121.358;2024-03-17T08:33:25;101197.88;;;14.03;62.85
64967;BME280;51710;38.732;-121.358;2024-03-17T08:36:09;101192.03;;;14.00;62.72
64967;BME280;51710;38.732;-121.358;2024-03-17T08:38:37;101210.28;;;13.96;62.93
64967;BME280;51710;38.732;-121.358;2024-03-17T08:41:05;101207.09;;;13.93;62.81
64967;BME280;51710;38.732;-121.358;2024-03-17T08:43:32;101206.75;;;13.88;63.07
64967;BME280;51710;38.732;-121.358;2024-03-17T08:46:00;101207.41;;;13.82;63.14
64967;BME280;51710;38.732;-121.358;2024-03-17T08:48:30;101214.09;;;13.78;63.46
64967;BME280;51710;38.732;-121.358;2024-03-17T08:51:00;101218.94;;;13.74;63.80
64967;BME280;51710;38.732;-121.358;2024-03-17T08:53:30;101221.78;;;13.73;63.89
64967;BME280;51710;38.732;-121.358;2024-03-17T08:55:57;101221.78;;;13.73;63.67
64967;BME280;51710;38.732;-121.358;2024-03-17T08:58:24;101220.94;;;13.72;64.10
64967;BME280;51710;38.732;-121.358;2024-03-17T09:00:51;101222.97;;;13.70;64.19
64967;BME280;51710;38.732;-121.358;2024-03-17T09:03:18;101221.78;;;13.73;64.32
64967;BME280;51710;38.732;-121.358;2024-03-17T09:05:46;101227.97;;;13.73;64.22
64967;BME280;51710;38.732;-121.358;2024-03-17T09:08:20;101221.78;;;13.73;64.52
64967;BME280;51710;38.732;-121.358;2024-03-17T09:10:47;101222.47;;;13.75;64.39
64967;BME280;51710;38.732;-121.358;2024-03-17T09:13:33;101220.78;;;13.74;64.42
64967;BME280;51710;38.732;-121.358;2024-03-17T09:16:00;101219.28;;;13.71;64.48
64967;BME280;51710;38.732;-121.358;2024-03-17T09:18:31;101226.47;;;13.71;64.93
64967;BME280;51710;38.732;-121.358;2024-03-17T09:23:25;101214.09;;;13.70;65.29
64967;BME280;51710;38.732;-121.358;2024-03-17T09:25:59;101215.06;;;13.69;65.63
64967;BME280;51710;38.732;-121.358;2024-03-17T09:28:27;101210.91;;;13.66;65.74
64967;BME280;51710;38.732;-121.358;2024-03-17T09:30:54;101211.25;;;13.63;65.80
64967;BME280;51710;38.732;-121.358;2024-03-17T09:33:22;101209.03;;;13.58;65.92
64967;BME280;51710;38.732;-121.358;2024-03-17T09:36:08;101210.53;;;13.53;66.07
64967;BME280;51710;38.732;-121.358;2024-03-17T09:38:39;101207.22;;;13.51;66.48
64967;BME280;51710;38.732;-121.358;2024-03-17T09:41:19;101212.69;;;13.49;66.73
64967;BME280;51710;38.732;-121.358;2024-03-17T09:43:47;101212.88;;;13.48;66.57
64967;BME280;51710;38.732;-121.358;2024-03-17T09:46:15;101214.22;;;13.44;66.96
64967;BME280;51710;38.732;-121.358;2024-03-17T09:48:42;101216.03;;;13.43;66.93
64967;BME280;51710;38.732;-121.358;2024-03-17T09:51:18;101217.69;;;13.44;67.18
64967;BME280;51710;38.732;-121.358;2024-03-17T09:53:45;101223.38;;;13.41;67.20
64967;BME280;51710;38.732;-121.358;2024-03-17T09:56:12;101227.09;;;13.40;67.63
64967;BME280;51710;38.732;-121.358;2024-03-17T09:58:42;101231.75;;;13.38;67.63
64967;BME280;51710;38.732;-121.358;2024-03-17T10:01:09;101229.88;;;13.39;67.81
64967;BME280;51710;38.732;-121.358;2024-03-17T10:03:51;101222.88;;;13.38;68.10
64967;BME280;51710;38.732;-121.358;2024-03-17T10:06:21;101222.03;;;13.37;68.07
64967;BME280;51710;38.732;-121.358;2024-03-17T10:08:50;101224.72;;;13.37;68.39
64967;BME280;51710;38.732;-121.358;2024-03-17T10:11:18;101220.03;;;13.39;68.38
64967;BME280;51710;38.732;-121.358;2024-03-17T10:13:46;101216.38;;;13.40;68.31
64967;BME280;51710;38.732;-121.358;2024-03-17T10:16:25;101211.03;;;13.40;68.24
64967;BME280;51710;38.732;-121.358;2024-03-17T10:19:06;101223.72;;;13.38;68.38
64967;BME280;51710;38.732;-121.358;2024-03-17T10:21:33;101210.81;;;13.34;68.66
64967;BME280;51710;38.732;-121.358;2024-03-17T10:24:06;101216.34;;;13.32;68.72
64967;BME280;51710;38.732;-121.358;2024-03-17T10:26:43;101209.31;;;13.31;68.62
64967;BME280;51710;38.732;-121.358;2024-03-17T10:29:35;101216.00;;;13.27;68.98
64967;BME280;51710;38.732;-121.358;2024-03-17T10:32:13;101213.81;;;13.23;69.04
64967;BME280;51710;38.732;-121.358;2024-03-17T10:34:39;101207.28;;;13.17;69.14
64967;BME280;51710;38.732;-121.358;2024-03-17T10:37:20;101206.91;;;13.12;69.36
64967;BME280;51710;38.732;-121.358;2024-03-17T10:39:53;101202.72;;;13.10;69.31
64967;BME280;51710;38.732;-121.358;2024-03-17T10:42:26;101209.25;;;13.07;69.69
64967;BME280;51710;38.732;-121.358;2024-03-17T10:45:01;101205.03;;;13.05;69.67
64967;BME280;51710;38.732;-121.358;2024-03-17T10:47:34;101207.72;;;13.05;69.94
64967;BME280;51710;38.732;-121.358;2024-03-17T10:50:00;101211.25;;;13.05;69.75
64967;BME280;51710;38.732;-121.358;2024-03-17T10:52:33;101205.88;;;13.05;70.13
64967;BME280;51710;38.732;-121.358;2024-03-17T10:55:07;101200.53;;;13.05;70.05
64967;BME280;51710;38.732;-121.358;2024-03-17T11:00:03;101201.16;;;12.99;70.20
64967;BME280;51710;38.732;-121.358;2024-03-17T11:02:31;101205.16;;;12.95;70.01
64967;BME280;51710;38.732;-121.358;2024-03-17T11:05:03;101204.47;;;12.93;69.97
64967;BME280;51710;38.732;-121.358;2024-03-17T11:07:32;101198.28;;;12.93;70.32
64967;BME280;51710;38.732;-121.358;2024-03-17T11:10:00;101202.63;;;12.94;70.62
64967;BME280;51710;38.732;-121.358;2024-03-17T11:12:41;101193.25;;;12.90;70.56
64967;BME280;51710;38.732;-121.358;2024-03-17T11:17:47;101197.22;;;12.78;70.65
64967;BME280;51710;38.732;-121.358;2024-03-17T11:20:15;101195.00;;;12.73;70.94
64967;BME280;51710;38.732;-121.358;2024-03-17T11:22:49;101197.31;;;12.68;70.97
64967;BME280;51710;38.732;-121.358;2024-03-17T11:27:59;101208.69;;;12.70;71.13
64967;BME280;51710;38.732;-121.358;2024-03-17T11:38:56;101206.34;;;12.67;71.15
64967;BME280;51710;38.732;-121.358;2024-03-17T11:44:25;101211.00;;;12.65;71.07
64967;BME280;51710;38.732;-121.358;2024-03-17T11:47:02;101211.47;;;12.61;71.29
64967;BME280;51710;38.732;-121.358;2024-03-17T11:49:41;101213.63;;;12.57;71.02
64967;BME280;51710;38.732;-121.358;2024-03-17T11:54:37;101210.53;;;12.44;71.31
64967;BME280;51710;38.732;-121.358;2024-03-17T11:57:13;101208.34;;;12.39;71.57
64967;BME280;51710;38.732;-121.358;2024-03-17T11:59:40;101212.31;;;12.35;71.54
64967;BME280;51710;38.732;-121.358;2024-03-17T12:02:19;101219.13;;;12.30;71.47
64967;BME280;51710;38.732;-121.358;2024-03-17T12:04:46;101211.88;;;12.22;71.57
64967;BME280;51710;38.732;-121.358;2024-03-17T12:07:17;101214.19;;;12.17;71.51
64967;BME280;51710;38.732;-121.358;2024-03-17T12:09:45;101222.34;;;12.16;71.88
64967;BME280;51710;38.732;-121.358;2024-03-17T12:12:24;101220.94;;;12.04;71.39
64967;BME280;51710;38.732;-121.358;2024-03-17T12:14:57;101229.94;;;11.85;71.53
64967;BME280;51710;38.732;-121.358;2024-03-17T12:17:24;101221.31;;;11.74;72.64
64967;BME280;51710;38.732;-121.358;2024-03-17T12:19:51;101214.50;;;11.62;72.67
64967;BME280;51710;38.732;-121.358;2024-03-17T12:22:25;101220.56;;;11.54;72.91
64967;BME280;51710;38.732;-121.358;2024-03-17T12:24:58;101212.72;;;11.53;72.96
64967;BME280;51710;38.732;-121.358;2024-03-17T12:27:26;101219.75;;;11.54;72.58
64967;BME280;51710;38.732;-121.358;2024-03-17T12:29:54;101232.03;;;11.47;72.47
64967;BME280;51710;38.732;-121.358;2024-03-17T12:32:22;101230.56;;;11.34;72.25
64967;BME280;51710;38.732;-121.358;2024-03-17T12:34:53;101232.03;;;11.19;73.13
64967;BME280;51710;38.732;-121.358;2024-03-17T12:37:22;101228.44;;;11.11;73.33
64967;BME280;51710;38.732;-121.358;2024-03-17T12:39:49;101235.88;;;11.07;73.68
64967;BME280;51710;38.732;-121.358;2024-03-17T12:42:26;101232.41;;;11.07;73.22
64967;BME280;51710;38.732;-121.358;2024-03-17T12:44:57;101240.28;;;10.99;73.54
64967;BME280;51710;38.732;-121.358;2024-03-17T12:47:25;101237.91;;;10.96;74.29
64967;BME280;51710;38.732;-121.358;2024-03-17T12:49:53;101247.88;;;10.94;74.08
64967;BME280;51710;38.732;-121.358;2024-03-17T12:52:29;101249.13;;;10.90;73.93
64967;BME280;51710;38.732;-121.358;2024-03-17T12:54:57;101250.13;;;10.89;74.37
64967;BME280;51710;38.732;-121.358;2024-03-17T12:57:43;101264.97;;;10.91;74.73